Time;durP1;ratioP1;P1;durP2;ratioP2;P2;SDS_P1;SDS_P2;PMS_P1;PMS_P2;Temp;Humidity;BMP_temperature;BMP_pressure;BME280_temperature;BME280_humidity;BME280_pressure;Samples;Min_cycle;Max_cycle;Signal;HPM_P1;HPM_P2
2022/06/29 00:00:24;;;;;;;;;5.25;5.25;;;;;21.05;42.86;100628.03;5075433;27;45402;-69
2022/06/29 00:02:50;;;;;;;;;4.50;4.50;;;;;21.00;42.90;100624.91;5075165;27;45310;-71
2022/06/29 00:05:17;;;;;;;;;4.50;3.75;;;;;20.97;42.56;100626.03;5075758;27;45519;-70
2022/06/29 00:07:44;;;;;;;;;5.00;5.00;;;;;20.93;42.91;100624.59;5075593;27;45592;-71
2022/06/29 00:10:12;;;;;;;;;4.75;4.75;;;;;20.91;43.05;100628.34;5075047;28;45422;-70
2022/06/29 00:12:39;;;;;;;;;6.50;6.25;;;;;20.80;43.73;100616.72;5075415;27;45309;-68
2022/06/29 00:15:06;;;;;;;;;6.00;4.25;;;;;20.76;43.80;100614.41;5075791;27;45492;-72
2022/06/29 00:17:32;;;;;;;;;9.00;6.00;;;;;20.77;44.24;100621.47;5075137;27;45452;-71
2022/06/29 00:19:59;;;;;;;;;7.00;5.00;;;;;20.73;44.21;100621.72;5075286;27;45291;-71
2022/06/29 00:22:25;;;;;;;;;5.25;4.75;;;;;20.66;44.58;100619.66;5075538;27;45227;-72
2022/06/29 00:24:51;;;;;;;;;5.00;5.00;;;;;20.65;45.29;100626.81;5075901;27;45531;-71
2022/06/29 00:27:17;;;;;;;;;7.00;5.25;;;;;20.58;45.49;100623.81;5059219;28;45537;-73
2022/06/29 00:29:42;;;;;;;;;6.00;6.00;;;;;20.49;46.55;100621.03;5053585;28;45406;-71
2022/06/29 00:32:08;;;;;;;;;5.75;5.00;;;;;20.42;47.03;100629.56;5054520;28;45464;-71
2022/06/29 00:34:34;;;;;;;;;4.00;4.00;;;;;20.35;47.51;100616.84;5055869;28;45644;-73
2022/06/29 00:36:59;;;;;;;;;7.25;6.50;;;;;20.23;47.41;100611.53;5054808;28;45582;-71
2022/06/29 00:39:25;;;;;;;;;4.00;4.00;;;;;20.18;47.66;100608.38;5055040;28;45337;-71
2022/06/29 00:41:50;;;;;;;;;5.00;5.00;;;;;20.12;48.06;100606.16;5054944;28;45366;-70
2022/06/29 00:44:17;;;;;;;;;7.00;5.50;;;;;20.08;48.40;100605.59;5055070;28;45223;-71
2022/06/29 00:46:47;;;;;;;;;7.00;6.50;;;;;20.06;48.23;100604.84;5053528;28;46563;-73
2022/06/29 00:49:17;;;;;;;;;5.25;5.25;;;;;20.00;48.89;100603.50;5054681;28;45489;-70
2022/06/29 00:51:46;;;;;;;;;6.00;4.50;;;;;19.96;48.52;100610.06;5054725;28;45231;-71
2022/06/29 00:54:17;;;;;;;;;4.00;4.00;;;;;19.92;49.30;100602.44;5054890;28;45366;-72
2022/06/29 00:56:42;;;;;;;;;4.00;2.75;;;;;19.84;49.08;100595.88;5054874;28;45733;-70
2022/06/29 00:59:11;;;;;;;;;4.00;4.00;;;;;19.90;49.09;100594.53;5055190;28;45333;-71
2022/06/29 01:01:38;;;;;;;;;4.50;4.50;;;;;19.87;49.66;100593.91;5055287;28;45300;-71
2022/06/29 01:04:04;;;;;;;;;3.25;3.25;;;;;19.84;49.49;100597.66;5055003;28;45619;-71
2022/06/29 01:06:29;;;;;;;;;5.50;3.75;;;;;19.83;49.46;100601.31;5054472;28;45480;-72
2022/06/29 01:08:55;;;;;;;;;4.00;4.00;;;;;19.82;49.80;100604.94;5054935;28;45375;-71
2022/06/29 01:11:20;;;;;;;;;3.75;2.00;;;;;19.79;49.74;100597.19;5055497;28;45380;-72
2022/06/29 01:13:47;;;;;;;;;4.25;2.50;;;;;19.77;49.41;100601.78;5055148;28;45364;-71
2022/06/29 01:16:13;;;;;;;;;3.00;3.00;;;;;19.73;49.39;100603.00;5056589;28;48358;-70
2022/06/29 01:18:38;;;;;;;;;5.50;3.75;;;;;19.71;49.49;100603.97;5058222;28;45362;-71
2022/06/29 01:21:05;;;;;;;;;3.50;2.00;;;;;19.68;50.37;100600.72;5058156;28;45211;-72
2022/06/29 01:23:34;;;;;;;;;2.75;2.75;;;;;19.63;50.14;100603.72;5058578;28;45588;-71
2022/06/29 01:26:07;;;;;;;;;2.25;2.25;;;;;19.58;49.89;100592.56;5057840;28;45349;-72
2022/06/29 01:28:32;;;;;;;;;2.00;2.00;;;;;19.59;49.99;100596.94;5057904;28;45402;-72
2022/06/29 01:30:59;;;;;;;;;5.75;4.25;;;;;19.56;50.81;100595.34;5057794;28;45712;-71
2022/06/29 01:33:25;;;;;;;;;4.00;3.00;;;;;19.47;51.22;100589.91;5057999;28;45477;-71
2022/06/29 01:35:50;;;;;;;;;2.25;2.25;;;;;19.40;51.47;100593.03;5057590;28;45413;-72
2022/06/29 01:38:17;;;;;;;;;3.00;3.00;;;;;19.33;51.76;100597.16;5057627;28;45309;-72
2022/06/29 01:40:43;;;;;;;;;2.25;2.25;;;;;19.29;51.72;100597.50;5057738;28;45244;-71
2022/06/29 01:43:09;;;;;;;;;1.00;1.00;;;;;19.23;51.08;100597.00;5058083;28;45585;-71
2022/06/29 01:45:34;;;;;;;;;3.50;3.50;;;;;19.18;51.18;100598.34;5057899;28;46494;-72
2022/06/29 01:47:59;;;;;;;;;5.00;3.00;;;;;19.12;51.54;100592.50;5057493;28;45354;-71
2022/06/29 01:50:25;;;;;;;;;3.00;3.00;;;;;19.04;51.67;100589.53;5056062;28;45265;-71
2022/06/29 01:52:50;;;;;;;;;4.25;2.75;;;;;19.04;51.68;100588.72;5057731;28;45603;-72
2022/06/29 01:55:15;;;;;;;;;1.50;1.50;;;;;18.98;51.19;100587.34;5057171;28;46447;-71
2022/06/29 01:57:41;;;;;;;;;3.50;3.25;;;;;18.97;51.76;100589.16;5057588;28;45424;-72
2022/06/29 02:00:07;;;;;;;;;2.00;2.00;;;;;18.95;52.01;100583.06;5057747;28;45389;-70
2022/06/29 02:02:32;;;;;;;;;1.75;1.75;;;;;18.94;51.89;100588.50;5056075;28;45510;-72
2022/06/29 02:04:57;;;;;;;;;2.00;2.00;;;;;18.94;52.03;100585.84;5057088;28;46642;-70
2022/06/29 02:07:23;;;;;;;;;3.50;2.00;;;;;18.92;51.87;100582.44;5058050;28;45263;-71
2022/06/29 02:09:48;;;;;;;;;2.00;2.00;;;;;18.89;52.31;100588.00;5058390;28;45881;-72
2022/06/29 02:12:13;;;;;;;;;4.00;4.00;;;;;18.88;52.17;100587.16;5058701;28;45661;-70
2022/06/29 02:14:39;;;;;;;;;3.50;3.50;;;;;18.87;52.08;100590.81;5057957;28;45464;-72
2022/06/29 02:17:04;;;;;;;;;2.75;2.75;;;;;18.85;52.18;100587.41;5056914;28;46200;-71
2022/06/29 02:19:29;;;;;;;;;5.00;4.00;;;;;18.83;52.40;100594.66;5057439;28;45381;-71
2022/06/29 02:21:55;;;;;;;;;3.00;3.00;;;;;18.78;52.08;100597.66;5057396;28;45490;-71
2022/06/29 02:24:20;;;;;;;;;3.25;3.25;;;;;18.77;52.59;100598.63;5057204;28;45449;-71
2022/06/29 02:26:45;;;;;;;;;3.00;2.00;;;;;18.74;52.43;100585.53;5057059;28;45240;-71
2022/06/29 02:29:10;;;;;;;;;3.50;2.00;;;;;18.72;52.55;100586.63;5058501;28;45314;-71
2022/06/29 02:37:04;;;;;;;;;3.00;3.00;;;;;18.70;52.61;100589.38;5056536;28;45321;-71
2022/06/29 02:39:29;;;;;;;;;3.00;3.00;;;;;18.67;52.58;100576.31;5055758;28;45721;-72
2022/06/29 02:41:54;;;;;;;;;3.25;2.25;;;;;18.58;52.69;100574.31;5057038;28;45782;-71
2022/06/29 02:44:20;;;;;;;;;3.25;2.75;;;;;18.59;52.71;100576.03;5056508;28;49816;-70
2022/06/29 02:46:45;;;;;;;;;3.50;3.00;;;;;18.61;52.74;100576.75;5056852;28;45317;-68
2022/06/29 02:49:10;;;;;;;;;3.00;3.00;;;;;18.62;52.80;100581.13;5057282;28;45480;-70
2022/06/29 02:51:36;;;;;;;;;3.00;3.00;;;;;18.61;52.61;100585.63;5056438;28;45580;-69
2022/06/29 02:54:01;;;;;;;;;4.00;4.00;;;;;18.56;53.17;100574.44;5056338;28;46285;-72
2022/06/29 02:56:26;;;;;;;;;4.25;4.25;;;;;18.53;53.03;100582.63;5056307;28;45235;-70
2022/06/29 02:58:52;;;;;;;;;4.25;3.50;;;;;18.49;52.79;100570.50;5056227;28;45439;-72
2022/06/29 03:01:17;;;;;;;;;5.75;5.75;;;;;18.48;53.10;100572.34;5056686;28;45639;-73
2022/06/29 03:03:42;;;;;;;;;5.75;5.50;;;;;18.44;53.13;100568.22;5056392;28;46462;-69
2022/06/29 03:06:08;;;;;;;;;4.50;4.25;;;;;18.32;53.52;100556.63;5055993;28;45311;-71
2022/06/29 03:08:33;;;;;;;;;5.25;5.25;;;;;18.32;53.51;100561.97;5056275;28;45463;-71
2022/06/29 03:10:58;;;;;;;;;6.00;6.00;;;;;18.35;53.67;100566.22;5056180;28;45399;-71
2022/06/29 03:13:24;;;;;;;;;4.25;4.00;;;;;18.30;53.54;100560.38;5056036;28;45580;-70
2022/06/29 03:15:49;;;;;;;;;6.00;5.50;;;;;18.29;53.50;100570.16;5055793;28;45222;-69
2022/06/29 03:18:14;;;;;;;;;6.00;6.00;;;;;18.33;53.67;100576.13;5054901;28;45557;-71
2022/06/29 03:20:40;;;;;;;;;6.25;6.25;;;;;18.30;53.73;100576.34;5056312;28;45189;-70
2022/06/29 03:23:05;;;;;;;;;5.75;5.75;;;;;18.31;53.48;100583.38;5054281;28;47041;-71
2022/06/29 03:25:31;;;;;;;;;7.50;6.00;;;;;18.23;53.85;100568.81;5055667;28;45400;-72
2022/06/29 03:27:56;;;;;;;;;5.00;5.00;;;;;18.29;53.83;100582.66;5055855;28;45379;-72
2022/06/29 03:30:21;;;;;;;;;7.00;6.75;;;;;18.29;53.73;100577.31;5055945;28;45659;-71
2022/06/29 03:32:47;;;;;;;;;6.75;6.75;;;;;18.27;53.82;100577.41;5056109;28;45473;-71
2022/06/29 03:35:12;;;;;;;;;6.00;5.25;;;;;18.28;53.75;100573.78;5056024;28;45377;-71
2022/06/29 03:37:37;;;;;;;;;5.75;5.75;;;;;18.28;53.80;100568.47;5055801;28;45394;-73
2022/06/29 03:40:03;;;;;;;;;8.00;6.50;;;;;18.30;53.70;100565.72;5057242;28;45307;-70
2022/06/29 03:42:29;;;;;;;;;6.50;5.00;;;;;18.31;53.43;100564.75;5055793;28;45328;-71
2022/06/29 03:44:55;;;;;;;;;5.75;5.75;;;;;18.34;53.89;100561.84;5055806;28;45283;-71
2022/06/29 03:47:20;;;;;;;;;4.50;4.50;;;;;18.33;53.76;100552.16;5056090;28;45334;-74
2022/06/29 03:49:46;;;;;;;;;6.75;5.00;;;;;18.34;53.90;100562.69;5056442;28;45192;-71
2022/06/29 03:52:11;;;;;;;;;7.25;7.25;;;;;18.25;53.86;100537.63;5055634;28;45350;-71
2022/06/29 03:54:36;;;;;;;;;7.00;7.00;;;;;18.37;53.89;100553.66;5055452;28;45244;-71
2022/06/29 03:57:02;;;;;;;;;7.00;7.00;;;;;18.39;54.03;100555.22;5055337;28;45319;-70
2022/06/29 03:59:27;;;;;;;;;6.00;6.00;;;;;18.42;54.03;100559.47;5055686;28;45297;-71
2022/06/29 04:01:53;;;;;;;;;6.50;6.00;;;;;18.39;53.61;100552.56;5055320;28;45381;-70
2022/06/29 04:04:18;;;;;;;;;4.75;4.75;;;;;18.42;53.79;100554.16;5055615;28;45182;-71
2022/06/29 04:06:44;;;;;;;;;8.75;6.00;;;;;18.45;53.80;100564.59;5055208;28;45297;-72
2022/06/29 04:09:09;;;;;;;;;5.00;5.00;;;;;18.46;53.63;100563.63;5055644;28;45321;-72
2022/06/29 04:11:49;;;;;;;;;5.75;4.25;;;;;18.43;53.51;100555.84;5053946;28;46152;-71
2022/06/29 04:14:19;;;;;;;;;6.00;6.00;;;;;18.48;53.79;100564.34;5054045;28;45406;-72
2022/06/29 04:16:45;;;;;;;;;6.00;6.00;;;;;18.50;53.72;100562.44;5053644;28;45287;-72
2022/06/29 04:19:10;;;;;;;;;7.00;6.50;;;;;18.50;53.84;100562.44;5053732;28;45243;-72
2022/06/29 04:21:36;;;;;;;;;4.00;4.00;;;;;18.49;53.73;100560.72;5056595;28;45402;-72
2022/06/29 04:24:01;;;;;;;;;5.00;5.00;;;;;18.53;53.86;100561.34;5053634;28;45420;-71
2022/06/29 04:26:26;;;;;;;;;7.50;6.00;;;;;18.60;53.84;100569.72;5053636;28;45441;-71
2022/06/29 04:28:52;;;;;;;;;6.00;5.75;;;;;18.60;53.63;100569.72;5052528;28;45433;-72
2022/06/29 04:31:18;;;;;;;;;8.75;8.75;;;;;18.60;54.06;100561.75;5053637;28;46270;-71
2022/06/29 04:33:43;;;;;;;;;3.75;3.75;;;;;18.61;53.88;100566.09;5053528;28;45368;-71
2022/06/29 04:36:09;;;;;;;;;6.00;6.00;;;;;18.63;54.08;100566.84;5053539;28;45322;-71
2022/06/29 04:38:34;;;;;;;;;5.25;5.25;;;;;18.64;53.91;100563.22;5053833;28;45353;-71
2022/06/29 04:41:00;;;;;;;;;4.00;4.00;;;;;18.65;53.85;100565.78;5053736;28;46092;-71
2022/06/29 04:43:27;;;;;;;;;5.75;4.25;;;;;18.71;54.21;100564.44;5054390;28;45295;-72
2022/06/29 04:48:37;;;;;;;;;5.00;5.00;;;;;18.71;53.77;100561.78;5053150;28;45311;-72
2022/06/29 04:51:02;;;;;;;;;4.00;4.00;;;;;18.75;54.26;100557.09;5052641;28;46099;-71
2022/06/29 04:53:27;;;;;;;;;5.75;4.25;;;;;18.77;54.14;100556.00;5053191;28;50647;-71
2022/06/29 04:55:53;;;;;;;;;4.00;4.00;;;;;18.80;54.23;100561.09;5053546;28;45164;-70
2022/06/29 04:58:18;;;;;;;;;4.00;4.00;;;;;18.71;54.25;100532.47;5053779;28;45301;-73
2022/06/29 05:00:43;;;;;;;;;12.25;5.75;;;;;18.76;54.21;100535.63;5053469;28;46507;-71
2022/06/29 05:03:09;;;;;;;;;3.75;3.75;;;;;19.14;53.92;100554.22;5053242;28;45211;-71
2022/06/29 05:05:34;;;;;;;;;5.75;5.50;;;;;19.53;53.35;100549.41;5053293;28;45322;-72
2022/06/29 05:07:59;;;;;;;;;6.25;5.00;;;;;19.98;52.63;100544.06;5053409;28;45540;-72
2022/06/29 05:10:25;;;;;;;;;5.75;4.50;;;;;20.42;51.71;100546.75;5013110;28;1118136;-72
2022/06/29 05:12:50;;;;;;;;;4.00;4.00;;;;;20.92;51.14;100553.38;5054833;28;45429;-72
2022/06/29 05:15:15;;;;;;;;;5.50;3.75;;;;;21.33;50.38;100545.47;5054514;28;45422;-71
2022/06/29 05:17:41;;;;;;;;;4.75;4.75;;;;;21.73;49.72;100542.00;5054625;28;45312;-71
2022/06/29 05:20:08;;;;;;;;;6.25;6.25;;;;;22.16;49.08;100542.69;5054211;28;45637;-71
2022/06/29 05:22:34;;;;;;;;;8.00;6.50;;;;;22.63;48.39;100546.53;5054042;28;45480;-72
2022/06/29 05:25:00;;;;;;;;;10.25;6.50;;;;;23.10;47.12;100553.00;5054650;28;45564;-72
2022/06/29 05:27:25;;;;;;;;;6.25;5.50;;;;;23.47;46.75;100550.41;5055269;28;45274;-72
2022/06/29 05:29:51;;;;;;;;;7.00;7.00;;;;;23.59;46.68;100556.41;5054282;28;45288;-71
2022/06/29 05:32:16;;;;;;;;;5.25;5.25;;;;;23.69;46.27;100553.69;5054367;28;45338;-71
2022/06/29 05:34:42;;;;;;;;;8.25;7.00;;;;;23.72;45.84;100555.22;5054388;28;45414;-71
2022/06/29 05:37:07;;;;;;;;;7.00;7.00;;;;;23.76;45.75;100552.09;5054357;28;45271;-72
2022/06/29 05:39:32;;;;;;;;;8.50;7.50;;;;;23.81;45.64;100564.25;5053873;28;45356;-71
2022/06/29 05:41:58;;;;;;;;;10.25;7.00;;;;;23.77;45.69;100555.63;5054127;28;45264;-70
2022/06/29 05:44:23;;;;;;;;;11.50;9.25;;;;;23.82;45.32;100555.19;5054933;28;45220;-78
2022/06/29 05:46:49;;;;;;;;;6.25;6.25;;;;;23.83;45.39;100555.03;5055354;28;45449;-76
2022/06/29 05:49:14;;;;;;;;;9.00;9.00;;;;;23.85;45.21;100565.63;5054609;28;46863;-71
2022/06/29 05:51:39;;;;;;;;;8.50;8.50;;;;;23.81;45.22;100548.13;5057475;28;45311;-73
2022/06/29 05:54:05;;;;;;;;;6.00;6.00;;;;;23.81;44.21;100558.88;5075410;27;45446;-70
2022/06/29 05:56:30;;;;;;;;;8.25;7.25;;;;;23.66;43.88;100555.81;5073816;27;45447;-70
2022/06/29 05:58:55;;;;;;;;;6.25;4.00;;;;;23.41;43.88;100550.97;5074273;27;46251;-74
2022/06/29 06:01:21;;;;;;;;;6.00;4.25;;;;;23.18;43.66;100562.00;5082887;27;45328;-73
2022/06/29 06:03:46;;;;;;;;;3.00;3.00;;;;;22.95;44.04;100566.88;5101765;27;45368;-71
2022/06/29 06:06:12;;;;;;;;;3.00;3.00;;;;;22.69;43.67;100561.22;5088956;27;45575;-75
2022/06/29 06:08:37;;;;;;;;;3.50;3.50;;;;;22.46;44.28;100559.66;5078894;27;46934;-72
2022/06/29 06:11:03;;;;;;;;;4.50;3.50;;;;;22.29;44.70;100550.47;5095709;27;45375;-79
2022/06/29 06:13:28;;;;;;;;;5.00;4.00;;;;;22.20;44.33;100553.13;5080207;27;45456;-77
2022/06/29 06:15:54;;;;;;;;;8.00;6.50;;;;;22.02;44.95;100557.31;5085663;27;45296;-86
2022/06/29 06:18:19;;;;;;;;;4.00;4.00;;;;;21.91;45.29;100559.25;5080205;27;45466;-77
2022/06/29 06:20:45;;;;;;;;;6.00;6.00;;;;;21.81;45.39;100553.84;5078035;28;45445;-76
2022/06/29 06:23:10;;;;;;;;;4.50;3.00;;;;;21.71;45.75;100553.81;5078060;27;45386;-78
2022/06/29 06:25:35;;;;;;;;;4.50;3.00;;;;;21.63;45.60;100561.63;5077312;27;45473;-77
2022/06/29 06:28:01;;;;;;;;;4.50;4.50;;;;;21.51;45.13;100568.94;5077056;28;46533;-74
2022/06/29 06:30:27;;;;;;;;;6.75;5.00;;;;;21.35;45.35;100574.75;5077340;27;45483;-73
2022/06/29 06:32:53;;;;;;;;;3.75;2.75;;;;;21.25;44.77;100582.72;5077016;28;45317;-73
2022/06/29 06:35:21;;;;;;;;;6.00;5.25;;;;;21.16;44.57;100577.16;5077221;27;45346;-70
2022/06/29 06:37:47;;;;;;;;;3.00;3.00;;;;;21.10;44.40;100574.19;5075574;27;46790;-68
2022/06/29 06:42:56;;;;;;;;;1.75;1.75;;;;;21.05;44.39;100569.22;5069227;28;45465;-66
2022/06/29 06:45:22;;;;;;;;;1.00;1.00;;;;;20.98;44.25;100560.88;5076597;27;45318;-66
2022/06/29 06:47:47;;;;;;;;;3.50;1.50;;;;;21.01;44.69;100576.66;5076769;27;46112;-66
2022/06/29 06:50:13;;;;;;;;;2.75;2.75;;;;;20.96;44.66;100564.63;5076516;27;45373;-66
2022/06/29 06:52:38;;;;;;;;;3.25;3.25;;;;;20.99;44.71;100570.59;5076622;27;45423;-65
2022/06/29 06:55:04;;;;;;;;;6.00;3.00;;;;;20.99;44.68;100570.59;5074444;28;45691;-67
2022/06/29 06:57:29;;;;;;;;;2.25;2.00;;;;;21.04;44.75;100572.84;5075886;27;45414;-66
2022/06/29 06:59:55;;;;;;;;;4.00;2.50;;;;;21.07;43.86;100577.13;5076489;27;45414;-67
2022/06/29 07:02:21;;;;;;;;;2.00;2.00;;;;;21.04;44.17;100566.69;5076435;27;45264;-66
2022/06/29 07:04:46;;;;;;;;;6.00;1.50;;;;;21.00;43.60;100571.44;5076639;27;45223;-65
2022/06/29 07:07:15;;;;;;;;;4.75;3.00;;;;;21.03;43.67;100568.50;5076173;27;46254;-66
2022/06/29 07:09:40;;;;;;;;;1.75;1.75;;;;;21.09;43.54;100567.13;5076136;27;45333;-66
2022/06/29 07:12:06;;;;;;;;;2.50;2.50;;;;;21.11;44.03;100563.34;5075065;28;45535;-66
2022/06/29 07:14:32;;;;;;;;;1.00;0.00;;;;;21.10;43.54;100571.50;5076656;27;45485;-66
2022/06/29 07:16:58;;;;;;;;;1.75;1.25;;;;;21.13;43.61;100571.25;5076273;27;46307;-66
2022/06/29 07:19:23;;;;;;;;;2.50;1.50;;;;;21.14;43.78;100562.25;5076408;28;45446;-66
2022/06/29 07:21:49;;;;;;;;;2.25;1.50;;;;;21.17;43.35;100562.81;5075179;28;45375;-67
2022/06/29 07:24:14;;;;;;;;;1.00;1.00;;;;;21.22;43.33;100570.44;5076643;28;45483;-68
2022/06/29 07:26:39;;;;;;;;;3.00;3.00;;;;;21.25;43.44;100566.69;5076429;27;45285;-68
2022/06/29 07:29:05;;;;;;;;;2.00;2.00;;;;;21.29;43.27;100574.28;5076142;27;45308;-65
2022/06/29 07:31:30;;;;;;;;;2.25;2.25;;;;;21.37;43.31;100562.94;5076334;27;45290;-66
2022/06/29 07:33:55;;;;;;;;;3.00;3.00;;;;;21.47;43.08;100565.66;5077163;28;45460;-63
2022/06/29 07:36:21;;;;;;;;;2.00;2.00;;;;;21.44;43.15;100561.44;5076106;27;46409;-66
2022/06/29 07:38:46;;;;;;;;;3.75;3.00;;;;;21.53;42.92;100561.63;5076391;27;45373;-66
2022/06/29 07:41:11;;;;;;;;;3.50;2.75;;;;;21.62;42.90;100563.47;5076134;27;45266;-67
2022/06/29 07:43:37;;;;;;;;;2.50;2.50;;;;;21.76;42.88;100559.63;5076175;27;45636;-66
2022/06/29 07:46:02;;;;;;;;;4.00;1.00;;;;;21.88;42.49;100555.88;5075921;27;45324;-65
2022/06/29 07:48:28;;;;;;;;;3.25;2.00;;;;;22.01;41.79;100552.09;5076191;27;45393;-65
2022/06/29 07:50:53;;;;;;;;;1.50;1.50;;;;;22.14;41.72;100554.50;5091546;27;45393;-67
2022/06/29 07:53:20;;;;;;;;;2.00;2.00;;;;;22.31;41.93;100555.66;5076153;27;45396;-67
2022/06/29 07:55:46;;;;;;;;;2.00;2.00;;;;;22.48;41.74;100548.81;5075764;28;46554;-66
2022/06/29 07:58:16;;;;;;;;;4.00;2.75;;;;;22.60;41.30;100544.16;5076033;27;45470;-67
2022/06/29 08:00:44;;;;;;;;;4.00;4.00;;;;;22.69;40.55;100554.03;5076222;27;45443;-65
2022/06/29 08:03:10;;;;;;;;;3.00;1.25;;;;;22.79;40.65;100548.66;5076209;27;45314;-67
2022/06/29 08:05:36;;;;;;;;;2.00;2.00;;;;;22.81;40.42;100541.31;5076188;28;45466;-66
2022/06/29 08:08:03;;;;;;;;;2.00;2.00;;;;;22.82;40.57;100550.22;5076180;27;45408;-65
2022/06/29 08:10:29;;;;;;;;;4.25;4.25;;;;;22.91;40.63;100550.19;5076107;28;45376;-66
2022/06/29 08:12:54;;;;;;;;;1.75;1.75;;;;;23.01;40.13;100541.28;5075024;28;45354;-67
2022/06/29 08:15:20;;;;;;;;;1.25;1.25;;;;;23.10;39.91;100536.91;5075569;27;45620;-66
2022/06/29 08:17:48;;;;;;;;;3.25;3.25;;;;;23.26;39.76;100547.91;5076283;27;45432;-68
2022/06/29 08:20:14;;;;;;;;;6.75;6.75;;;;;23.41;39.67;100537.56;5076285;27;45227;-67
2022/06/29 08:22:40;;;;;;;;;1.00;1.00;;;;;23.56;39.69;100545.13;5075930;27;45504;-66
2022/06/29 08:25:06;;;;;;;;;1.50;1.50;;;;;23.68;39.08;100543.94;5075796;27;46364;-67
2022/06/29 08:27:33;;;;;;;;;2.75;2.00;;;;;23.80;39.09;100541.06;5076341;27;45413;-66
2022/06/29 08:29:58;;;;;;;;;2.50;2.25;;;;;23.87;38.42;100542.16;5076384;27;45460;-67
2022/06/29 08:32:24;;;;;;;;;2.75;1.00;;;;;23.86;38.31;100535.09;5076341;27;45389;-65
2022/06/29 08:34:49;;;;;;;;;0.50;0.00;;;;;23.89;38.10;100537.47;5076027;27;45331;-68
2022/06/29 08:37:15;;;;;;;;;1.00;1.00;;;;;23.90;38.52;100531.09;5075789;27;45423;-66
2022/06/29 08:39:40;;;;;;;;;1.25;1.00;;;;;23.95;38.64;100530.66;5075662;28;45350;-67
2022/06/29 08:42:06;;;;;;;;;1.25;1.25;;;;;24.02;38.33;100540.69;5075976;27;45412;-66
2022/06/29 08:44:33;;;;;;;;;2.00;2.00;;;;;24.09;38.43;100543.63;5075672;27;45198;-66
2022/06/29 08:47:07;;;;;;;;;1.75;1.75;;;;;24.17;37.77;100532.97;5075317;27;45312;-66
2022/06/29 08:49:34;;;;;;;;;1.50;1.50;;;;;24.25;37.96;100537.56;5091374;27;45217;-65
2022/06/29 08:52:03;;;;;;;;;2.00;2.00;;;;;24.29;36.87;100533.56;5075652;27;45492;-66
2022/06/29 08:54:28;;;;;;;;;9.50;5.50;;;;;24.38;37.65;100531.81;5075025;27;45885;-66
2022/06/29 08:56:56;;;;;;;;;2.00;2.00;;;;;24.45;36.93;100530.19;5075173;27;45428;-66
2022/06/29 08:59:22;;;;;;;;;4.00;2.50;;;;;24.50;36.71;100532.44;5090699;27;45364;-66
2022/06/29 09:01:51;;;;;;;;;3.25;2.50;;;;;24.55;37.13;100534.66;5090777;27;45648;-63
2022/06/29 09:04:18;;;;;;;;;3.50;3.50;;;;;24.71;36.96;100533.94;5074860;28;45499;-66
2022/06/29 09:06:44;;;;;;;;;3.00;3.00;;;;;24.78;37.12;100540.44;5074844;27;45435;-65
2022/06/29 09:09:09;;;;;;;;;3.00;3.00;;;;;24.85;37.01;100543.31;5073453;28;45349;-66
2022/06/29 09:11:42;;;;;;;;;1.75;1.75;;;;;24.82;36.83;100539.13;5074825;27;45346;-65
2022/06/29 09:14:16;;;;;;;;;3.25;3.00;;;;;24.80;36.23;100541.94;5074796;27;45616;-66
2022/06/29 09:16:55;;;;;;;;;2.00;2.00;;;;;24.93;36.70;100541.56;5074001;27;45415;-67
2022/06/29 09:19:22;;;;;;;;;2.25;2.25;;;;;24.98;35.93;100541.09;5090526;27;45400;-67
2022/06/29 09:21:53;;;;;;;;;3.50;2.50;;;;;25.00;35.96;100544.47;5075085;27;45318;-68
2022/06/29 09:24:25;;;;;;;;;2.50;1.00;;;;;25.02;35.62;100547.00;5074749;27;45408;-67
2022/06/29 09:27:00;;;;;;;;;3.00;3.00;;;;;24.98;35.50;100540.22;5074835;27;45229;-66
2022/06/29 09:29:27;;;;;;;;;3.00;2.00;;;;;24.97;36.43;100550.16;5074793;27;45394;-66
2022/06/29 09:32:13;;;;;;;;;2.75;2.75;;;;;25.05;35.50;100549.38;5074630;27;45501;-66
2022/06/29 09:34:45;;;;;;;;;1.00;1.00;;;;;25.02;35.39;100552.38;5073886;27;45686;-66
2022/06/29 09:37:15;;;;;;;;;1.00;1.00;;;;;24.94;35.62;100562.06;5077812;28;45285;-65
2022/06/29 09:39:53;;;;;;;;;3.00;3.00;;;;;24.96;35.93;100563.75;5077795;27;45377;-66
2022/06/29 09:42:24;;;;;;;;;4.75;2.50;;;;;24.96;36.41;100563.75;5077988;28;45377;-66
2022/06/29 09:44:50;;;;;;;;;3.00;2.00;;;;;24.95;35.78;100544.09;5077592;27;46385;-67
2022/06/29 09:47:19;;;;;;;;;1.00;1.00;;;;;25.00;35.10;100554.38;5077528;27;45321;-65
2022/06/29 09:49:57;;;;;;;;;2.00;2.00;;;;;24.88;35.35;100557.31;5076097;28;45271;-66
2022/06/29 09:52:25;;;;;;;;;1.75;1.75;;;;;24.78;36.19;100559.25;5077573;27;45374;-67
2022/06/29 09:54:57;;;;;;;;;4.75;2.00;;;;;24.72;35.54;100552.59;5076981;27;45350;-67
2022/06/29 09:57:30;;;;;;;;;3.75;2.50;;;;;24.79;35.89;100552.88;5077149;27;45369;-66
2022/06/29 10:02:45;;;;;;;;;3.00;3.00;;;;;25.00;35.67;100551.69;5077297;28;45328;-65
2022/06/29 10:05:13;;;;;;;;;3.50;3.50;;;;;25.07;34.97;100552.75;5077273;28;46226;-67
2022/06/29 10:07:59;;;;;;;;;6.25;4.25;;;;;25.14;35.00;100555.66;5077335;27;45209;-66
2022/06/29 10:10:26;;;;;;;;;4.00;2.75;;;;;25.13;34.88;100552.09;5076881;27;45175;-67
2022/06/29 10:16:05;;;;;;;;;2.75;2.75;;;;;25.08;34.18;100552.59;5076926;28;45820;-67
2022/06/29 10:18:55;;;;;;;;;1.75;1.75;;;;;25.10;34.49;100552.44;5076650;27;45308;-66
2022/06/29 10:21:27;;;;;;;;;4.25;3.00;;;;;25.19;35.19;100542.56;5077145;28;45260;-66
2022/06/29 10:24:01;;;;;;;;;4.25;4.25;;;;;25.17;34.09;100529.25;5077161;27;45549;-67
2022/06/29 10:26:31;;;;;;;;;4.25;4.25;;;;;25.17;34.05;100536.50;5076733;28;46135;-67
2022/06/29 10:29:19;;;;;;;;;1.00;1.00;;;;;25.16;34.26;100542.88;5076720;27;45378;-67
2022/06/29 10:32:02;;;;;;;;;4.50;4.00;;;;;25.16;33.67;100538.34;5076788;27;45324;-66
2022/06/29 10:34:30;;;;;;;;;4.25;3.00;;;;;25.18;33.86;100530.94;5077295;27;45258;-67
2022/06/29 10:37:11;;;;;;;;;2.25;1.25;;;;;25.21;32.77;100533.31;5076666;27;46042;-66
2022/06/29 10:39:45;;;;;;;;;3.25;2.25;;;;;25.24;33.14;100530.31;5076957;28;45411;-66
2022/06/29 10:45:12;;;;;;;;;5.25;4.00;;;;;25.36;34.01;100514.75;5076902;28;45242;-66
2022/06/29 10:47:37;;;;;;;;;4.00;4.00;;;;;25.38;34.59;100504.66;5076579;27;45559;-67
2022/06/29 10:50:24;;;;;;;;;3.50;3.50;;;;;25.48;34.35;100506.41;5076047;28;45461;-67
2022/06/29 10:52:54;;;;;;;;;3.00;2.50;;;;;25.50;33.17;100505.25;5076613;27;45419;-65
2022/06/29 10:55:21;;;;;;;;;6.00;6.00;;;;;25.55;31.87;100509.31;5076946;27;45809;-67
2022/06/29 10:57:47;;;;;;;;;5.50;3.00;;;;;25.62;32.71;100515.72;5076319;27;46188;-67
2022/06/29 11:00:19;;;;;;;;;2.75;2.50;;;;;25.71;32.90;100501.28;5076464;28;45337;-66
2022/06/29 11:02:45;;;;;;;;;6.00;4.75;;;;;25.76;33.00;100500.78;5076847;28;45312;-67
2022/06/29 11:05:10;;;;;;;;;6.00;2.50;;;;;25.80;32.72;100500.31;5076601;27;45496;-66
2022/06/29 11:13:11;;;;;;;;;4.00;3.50;;;;;26.15;31.81;100492.16;5076464;28;45428;-67
2022/06/29 11:15:40;;;;;;;;;2.00;2.00;;;;;26.29;31.68;100492.53;5077009;27;45442;-66
2022/06/29 11:18:06;;;;;;;;;0.00;0.00;;;;;26.35;30.97;100489.97;5076300;27;45924;-67
2022/06/29 11:20:32;;;;;;;;;0.25;0.25;;;;;26.23;30.91;100486.78;5076056;27;45507;-65
2022/06/29 11:22:58;;;;;;;;;10.50;4.75;;;;;26.13;30.47;100486.06;5076261;27;45339;-65
2022/06/29 11:25:34;;;;;;;;;2.75;2.75;;;;;26.06;30.27;100485.88;5076406;27;45384;-67
2022/06/29 11:27:59;;;;;;;;;4.75;2.50;;;;;26.10;30.24;100487.22;5075916;28;45445;-67
2022/06/29 11:30:25;;;;;;;;;2.25;2.25;;;;;26.11;30.39;100488.91;5075677;27;45311;-67
2022/06/29 11:32:50;;;;;;;;;4.00;2.75;;;;;26.15;30.29;100484.09;5091492;27;45424;-67
2022/06/29 11:35:18;;;;;;;;;2.00;2.00;;;;;26.22;31.16;100474.31;5091526;27;45345;-66
2022/06/29 11:38:01;;;;;;;;;1.75;1.75;;;;;26.28;31.03;100478.19;5075813;27;45676;-67
2022/06/29 11:40:40;;;;;;;;;1.00;1.00;;;;;26.28;30.91;100478.19;5076053;27;45241;-68
2022/06/29 11:43:14;;;;;;;;;2.75;1.00;;;;;26.31;31.27;100472.44;5075866;27;45397;-66
2022/06/29 11:45:48;;;;;;;;;2.25;2.25;;;;;26.30;31.20;100478.84;5076148;27;45250;-67
2022/06/29 11:48:25;;;;;;;;;1.75;1.75;;;;;26.39;31.17;100480.53;5076172;27;46129;-66